sensor_id;sensor_type;location;lat;lon;timestamp;P1;durP1;ratioP1;P2;durP2;ratioP2
38911;SDS011;28444;48.056;14.408;2022-11-18T00:00:33;207.48;;;21.65;;
38911;SDS011;28444;48.056;14.408;2022-11-18T00:03:21;54.65;;;16.67;;
38911;SDS011;28444;48.056;14.408;2022-11-18T00:06:09;135.63;;;20.20;;
38911;SDS011;28444;48.056;14.408;2022-11-18T00:08:58;52.20;;;15.90;;
38911;SDS011;28444;48.056;14.408;2022-11-18T00:11:46;41.80;;;17.13;;
38911;SDS011;28444;48.056;14.408;2022-11-18T00:14:51;33.33;;;15.35;;
38911;SDS011;28444;48.056;14.408;2022-11-18T00:17:38;71.00;;;17.60;;
38911;SDS011;28444;48.056;14.408;2022-11-18T00:20:25;27.15;;;14.73;;
38911;SDS011;28444;48.056;14.408;2022-11-18T00:23:12;63.03;;;16.17;;
38911;SDS011;28444;48.056;14.408;2022-11-18T00:26:10;234.75;;;22.67;;
38911;SDS011;28444;48.056;14.408;2022-11-18T00:28:59;238.02;;;21.95;;
38911;SDS011;28444;48.056;14.408;2022-11-18T00:31:46;63.83;;;14.05;;
38911;SDS011;28444;48.056;14.408;2022-11-18T00:34:34;235.70;;;22.13;;
38911;SDS011;28444;48.056;14.408;2022-11-18T00:37:21;184.82;;;18.52;;
38911;SDS011;28444;48.056;14.408;2022-11-18T00:40:08;143.63;;;20.70;;
38911;SDS011;28444;48.056;14.408;2022-11-18T00:42:55;71.95;;;14.23;;
38911;SDS011;28444;48.056;14.408;2022-11-18T00:45:42;26.70;;;13.20;;
38911;SDS011;28444;48.056;14.408;2022-11-18T00:48:29;34.88;;;12.40;;
38911;SDS011;28444;48.056;14.408;2022-11-18T00:51:17;29.52;;;11.23;;
38911;SDS011;28444;48.056;14.408;2022-11-18T00:54:04;25.40;;;10.82;;
38911;SDS011;28444;48.056;14.408;2022-11-18T00:56:51;22.88;;;10.65;;
38911;SDS011;28444;48.056;14.408;2022-11-18T00:59:38;20.98;;;10.10;;
38911;SDS011;28444;48.056;14.408;2022-11-18T01:02:25;25.05;;;10.60;;
38911;SDS011;28444;48.056;14.408;2022-11-18T01:05:12;18.05;;;9.75;;
38911;SDS011;28444;48.056;14.408;2022-11-18T01:07:59;37.90;;;12.15;;
38911;SDS011;28444;48.056;14.408;2022-11-18T01:10:47;23.27;;;10.73;;
38911;SDS011;28444;48.056;14.408;2022-11-18T01:13:35;18.30;;;9.23;;
38911;SDS011;28444;48.056;14.408;2022-11-18T01:16:23;24.88;;;10.15;;
38911;SDS011;28444;48.056;14.408;2022-11-18T01:19:11;18.52;;;11.15;;
38911;SDS011;28444;48.056;14.408;2022-11-18T01:21:59;26.98;;;12.93;;
38911;SDS011;28444;48.056;14.408;2022-11-18T01:24:49;30.08;;;11.35;;
38911;SDS011;28444;48.056;14.408;2022-11-18T01:27:36;43.83;;;14.32;;
38911;SDS011;28444;48.056;14.408;2022-11-18T01:30:23;20.20;;;11.68;;
38911;SDS011;28444;48.056;14.408;2022-11-18T01:33:10;29.52;;;10.68;;
38911;SDS011;28444;48.056;14.408;2022-11-18T01:35:58;20.60;;;11.52;;
38911;SDS011;28444;48.056;14.408;2022-11-18T01:38:45;23.38;;;11.35;;
38911;SDS011;28444;48.056;14.408;2022-11-18T01:41:32;45.70;;;10.93;;
38911;SDS011;28444;48.056;14.408;2022-11-18T01:47:46;74.03;;;14.23;;
38911;SDS011;28444;48.056;14.408;2022-11-18T01:50:43;26.33;;;11.27;;
38911;SDS011;28444;48.056;14.408;2022-11-18T01:53:36;28.38;;;12.35;;
38911;SDS011;28444;48.056;14.408;2022-11-18T01:56:27;42.60;;;12.77;;
38911;SDS011;28444;48.056;14.408;2022-11-18T01:59:26;57.03;;;13.23;;
38911;SDS011;28444;48.056;14.408;2022-11-18T02:02:17;27.70;;;12.25;;
38911;SDS011;28444;48.056;14.408;2022-11-18T02:05:04;27.15;;;12.02;;
38911;SDS011;28444;48.056;14.408;2022-11-18T02:07:53;21.15;;;12.02;;
38911;SDS011;28444;48.056;14.408;2022-11-18T02:10:40;57.28;;;11.75;;
38911;SDS011;28444;48.056;14.408;2022-11-18T02:13:27;27.38;;;11.93;;
38911;SDS011;28444;48.056;14.408;2022-11-18T02:16:18;43.38;;;12.20;;
38911;SDS011;28444;48.056;14.408;2022-11-18T02:23:07;28.73;;;10.57;;
38911;SDS011;28444;48.056;14.408;2022-11-18T02:31:58;31.63;;;12.20;;
38911;SDS011;28444;48.056;14.408;2022-11-18T02:34:57;33.65;;;10.95;;
38911;SDS011;28444;48.056;14.408;2022-11-18T02:40:45;25.08;;;11.85;;
38911;SDS011;28444;48.056;14.408;2022-11-18T02:43:37;22.60;;;10.98;;
38911;SDS011;28444;48.056;14.408;2022-11-18T02:46:30;32.10;;;11.48;;
38911;SDS011;28444;48.056;14.408;2022-11-18T02:49:21;31.80;;;10.82;;
38911;SDS011;28444;48.056;14.408;2022-11-18T02:52:13;21.02;;;10.88;;
38911;SDS011;28444;48.056;14.408;2022-11-18T02:55:04;24.08;;;9.57;;
38911;SDS011;28444;48.056;14.408;2022-11-18T02:57:55;14.18;;;8.85;;
38911;SDS011;28444;48.056;14.408;2022-11-18T03:00:43;11.43;;;8.98;;
38911;SDS011;28444;48.056;14.408;2022-11-18T03:03:34;12.05;;;8.65;;
38911;SDS011;28444;48.056;14.408;2022-11-18T03:06:32;12.50;;;9.45;;
38911;SDS011;28444;48.056;14.408;2022-11-18T03:09:27;12.70;;;8.27;;
38911;SDS011;28444;48.056;14.408;2022-11-18T03:15:43;9.90;;;7.25;;
38911;SDS011;28444;48.056;14.408;2022-11-18T03:18:42;13.00;;;7.10;;
38911;SDS011;28444;48.056;14.408;2022-11-18T03:22:00;502.73;;;320.27;;
38911;SDS011;28444;48.056;14.408;2022-11-18T03:25:16;397.33;;;261.55;;
38911;SDS011;28444;48.056;14.408;2022-11-18T03:28:17;41.77;;;27.80;;
38911;SDS011;28444;48.056;14.408;2022-11-18T03:31:11;18.27;;;16.33;;
38911;SDS011;28444;48.056;14.408;2022-11-18T03:34:18;28.10;;;25.05;;
38911;SDS011;28444;48.056;14.408;2022-11-18T03:37:09;29.27;;;23.50;;
38911;SDS011;28444;48.056;14.408;2022-11-18T03:40:05;18.70;;;13.93;;
38911;SDS011;28444;48.056;14.408;2022-11-18T03:43:03;10.13;;;7.57;;
38911;SDS011;28444;48.056;14.408;2022-11-18T03:46:03;12.68;;;7.43;;
38911;SDS011;28444;48.056;14.408;2022-11-18T03:48:55;10.10;;;7.68;;
38911;SDS011;28444;48.056;14.408;2022-11-18T03:51:48;8.63;;;6.35;;
38911;SDS011;28444;48.056;14.408;2022-11-18T03:54:40;9.05;;;7.15;;
38911;SDS011;28444;48.056;14.408;2022-11-18T03:57:42;10.23;;;7.35;;
38911;SDS011;28444;48.056;14.408;2022-11-18T04:00:42;9.60;;;7.25;;
38911;SDS011;28444;48.056;14.408;2022-11-18T04:03:33;10.50;;;6.68;;
38911;SDS011;28444;48.056;14.408;2022-11-18T04:09:57;10.48;;;6.65;;
38911;SDS011;28444;48.056;14.408;2022-11-18T04:13:22;8.75;;;6.65;;
38911;SDS011;28444;48.056;14.408;2022-11-18T04:16:08;10.05;;;6.57;;
38911;SDS011;28444;48.056;14.408;2022-11-18T04:18:55;8.63;;;6.70;;
38911;SDS011;28444;48.056;14.408;2022-11-18T04:21:50;13.13;;;8.55;;
38911;SDS011;28444;48.056;14.408;2022-11-18T04:24:37;10.20;;;6.70;;
38911;SDS011;28444;48.056;14.408;2022-11-18T04:27:25;7.45;;;5.85;;
38911;SDS011;28444;48.056;14.408;2022-11-18T04:30:12;12.18;;;7.20;;
38911;SDS011;28444;48.056;14.408;2022-11-18T04:32:59;19.83;;;7.15;;
38911;SDS011;28444;48.056;14.408;2022-11-18T04:35:46;12.30;;;7.47;;
38911;SDS011;28444;48.056;14.408;2022-11-18T04:38:33;10.45;;;7.03;;
38911;SDS011;28444;48.056;14.408;2022-11-18T04:41:20;10.05;;;7.50;;
38911;SDS011;28444;48.056;14.408;2022-11-18T04:44:28;15.10;;;8.75;;
38911;SDS011;28444;48.056;14.408;2022-11-18T04:47:17;10.23;;;7.88;;
38911;SDS011;28444;48.056;14.408;2022-11-18T04:50:04;13.32;;;8.18;;
38911;SDS011;28444;48.056;14.408;2022-11-18T04:52:51;13.48;;;9.40;;
38911;SDS011;28444;48.056;14.408;2022-11-18T04:55:38;15.45;;;9.40;;
38911;SDS011;28444;48.056;14.408;2022-11-18T04:58:25;13.23;;;9.30;;
38911;SDS011;28444;48.056;14.408;2022-11-18T05:01:12;19.48;;;9.48;;
38911;SDS011;28444;48.056;14.408;2022-11-18T05:04:00;18.27;;;9.90;;
38911;SDS011;28444;48.056;14.408;2022-11-18T05:06:48;16.42;;;9.07;;
38911;SDS011;28444;48.056;14.408;2022-11-18T05:09:35;19.67;;;9.23;;
38911;SDS011;28444;48.056;14.408;2022-11-18T05:12:22;16.23;;;9.82;;
38911;SDS011;28444;48.056;14.408;2022-11-18T05:15:27;18.48;;;9.77;;
38911;SDS011;28444;48.056;14.408;2022-11-18T05:18:15;17.63;;;10.18;;
38911;SDS011;28444;48.056;14.408;2022-11-18T05:21:05;15.65;;;9.27;;
38911;SDS011;28444;48.056;14.408;2022-11-18T05:23:52;18.88;;;10.57;;
38911;SDS011;28444;48.056;14.408;2022-11-18T05:26:39;15.63;;;9.90;;
38911;SDS011;28444;48.056;14.408;2022-11-18T05:29:26;15.85;;;11.30;;
38911;SDS011;28444;48.056;14.408;2022-11-18T05:32:13;14.07;;;9.55;;
38911;SDS011;28444;48.056;14.408;2022-11-18T05:35:00;16.92;;;10.63;;
38911;SDS011;28444;48.056;14.408;2022-11-18T05:37:47;19.73;;;10.45;;
38911;SDS011;28444;48.056;14.408;2022-11-18T05:40:34;17.02;;;10.50;;
38911;SDS011;28444;48.056;14.408;2022-11-18T05:43:21;17.83;;;11.32;;
38911;SDS011;28444;48.056;14.408;2022-11-18T05:46:08;17.42;;;11.15;;
38911;SDS011;28444;48.056;14.408;2022-11-18T05:48:56;21.42;;;12.10;;
38911;SDS011;28444;48.056;14.408;2022-11-18T05:51:43;21.70;;;12.30;;
38911;SDS011;28444;48.056;14.408;2022-11-18T05:54:30;21.80;;;11.10;;
38911;SDS011;28444;48.056;14.408;2022-11-18T05:57:18;23.90;;;12.30;;
38911;SDS011;28444;48.056;14.408;2022-11-18T06:00:05;19.35;;;11.48;;
38911;SDS011;28444;48.056;14.408;2022-11-18T06:02:53;17.88;;;11.18;;
38911;SDS011;28444;48.056;14.408;2022-11-18T06:05:42;19.88;;;12.25;;
38911;SDS011;28444;48.056;14.408;2022-11-18T06:08:33;21.27;;;13.07;;
38911;SDS011;28444;48.056;14.408;2022-11-18T06:11:24;21.08;;;12.43;;
38911;SDS011;28444;48.056;14.408;2022-11-18T06:14:22;23.48;;;12.32;;
38911;SDS011;28444;48.056;14.408;2022-11-18T06:17:14;20.60;;;11.30;;
38911;SDS011;28444;48.056;14.408;2022-11-18T06:20:05;23.02;;;11.23;;
38911;SDS011;28444;48.056;14.408;2022-11-18T06:22:53;22.10;;;12.60;;
38911;SDS011;28444;48.056;14.408;2022-11-18T06:25:43;18.88;;;12.93;;
38911;SDS011;28444;48.056;14.408;2022-11-18T06:28:30;26.35;;;12.68;;
38911;SDS011;28444;48.056;14.408;2022-11-18T06:31:17;19.52;;;12.45;;
38911;SDS011;28444;48.056;14.408;2022-11-18T06:34:04;22.52;;;14.20;;
38911;SDS011;28444;48.056;14.408;2022-11-18T06:36:51;28.45;;;16.98;;
38911;SDS011;28444;48.056;14.408;2022-11-18T06:39:38;29.58;;;17.52;;
38911;SDS011;28444;48.056;14.408;2022-11-18T06:42:28;29.20;;;16.92;;
38911;SDS011;28444;48.056;14.408;2022-11-18T06:45:34;29.10;;;16.23;;
38911;SDS011;28444;48.056;14.408;2022-11-18T06:48:22;28.45;;;17.05;;
38911;SDS011;28444;48.056;14.408;2022-11-18T06:51:09;28.70;;;17.33;;
38911;SDS011;28444;48.056;14.408;2022-11-18T06:53:56;26.80;;;16.63;;
38911;SDS011;28444;48.056;14.408;2022-11-18T06:56:43;26.17;;;15.95;;
38911;SDS011;28444;48.056;14.408;2022-11-18T06:59:30;25.38;;;16.60;;
38911;SDS011;28444;48.056;14.408;2022-11-18T07:02:18;21.98;;;15.02;;
38911;SDS011;28444;48.056;14.408;2022-11-18T07:05:05;24.40;;;15.35;;
38911;SDS011;28444;48.056;14.408;2022-11-18T07:07:52;27.83;;;15.75;;
38911;SDS011;28444;48.056;14.408;2022-11-18T07:10:39;24.02;;;14.82;;
38911;SDS011;28444;48.056;14.408;2022-11-18T07:13:26;28.30;;;14.60;;
38911;SDS011;28444;48.056;14.408;2022-11-18T07:16:14;23.33;;;14.25;;
38911;SDS011;28444;48.056;14.408;2022-11-18T07:19:09;21.52;;;13.20;;
38911;SDS011;28444;48.056;14.408;2022-11-18T07:21:58;23.85;;;12.15;;
38911;SDS011;28444;48.056;14.408;2022-11-18T07:24:45;20.27;;;12.68;;
38911;SDS011;28444;48.056;14.408;2022-11-18T07:27:32;18.92;;;11.77;;
38911;SDS011;28444;48.056;14.408;2022-11-18T07:30:19;19.63;;;12.40;;
38911;SDS011;28444;48.056;14.408;2022-11-18T07:33:07;22.15;;;13.85;;
38911;SDS011;28444;48.056;14.408;2022-11-18T07:35:54;21.85;;;14.02;;
38911;SDS011;28444;48.056;14.408;2022-11-18T07:38:41;20.08;;;13.57;;
38911;SDS011;28444;48.056;14.408;2022-11-18T07:41:29;19.35;;;12.00;;
38911;SDS011;28444;48.056;14.408;2022-11-18T07:44:16;17.73;;;11.38;;
38911;SDS011;28444;48.056;14.408;2022-11-18T07:47:03;18.13;;;11.20;;
38911;SDS011;28444;48.056;14.408;2022-11-18T07:49:50;15.15;;;9.85;;
38911;SDS011;28444;48.056;14.408;2022-11-18T07:52:37;13.55;;;9.45;;
38911;SDS011;28444;48.056;14.408;2022-11-18T07:55:25;16.52;;;9.07;;
38911;SDS011;28444;48.056;14.408;2022-11-18T07:58:17;12.38;;;8.43;;
38911;SDS011;28444;48.056;14.408;2022-11-18T08:01:12;15.00;;;9.57;;
38911;SDS011;28444;48.056;14.408;2022-11-18T08:04:04;12.88;;;8.38;;
38911;SDS011;28444;48.056;14.408;2022-11-18T08:06:53;12.80;;;8.27;;
38911;SDS011;28444;48.056;14.408;2022-11-18T08:09:40;14.10;;;8.63;;
38911;SDS011;28444;48.056;14.408;2022-11-18T08:12:28;12.45;;;8.90;;
38911;SDS011;28444;48.056;14.408;2022-11-18T08:15:18;14.80;;;6.82;;
38911;SDS011;28444;48.056;14.408;2022-11-18T08:18:05;10.32;;;6.25;;
38911;SDS011;28444;48.056;14.408;2022-11-18T08:21:02;11.52;;;6.03;;
38911;SDS011;28444;48.056;14.408;2022-11-18T08:23:53;7.57;;;5.40;;
38911;SDS011;28444;48.056;14.408;2022-11-18T08:26:42;9.10;;;5.93;;
38911;SDS011;28444;48.056;14.408;2022-11-18T08:29:29;5.60;;;3.80;;
38911;SDS011;28444;48.056;14.408;2022-11-18T08:32:16;7.43;;;3.80;;
38911;SDS011;28444;48.056;14.408;2022-11-18T08:35:03;5.03;;;3.60;;
38911;SDS011;28444;48.056;14.408;2022-11-18T08:37:56;5.55;;;3.50;;
38911;SDS011;28444;48.056;14.408;2022-11-18T08:40:44;6.50;;;2.75;;
38911;SDS011;28444;48.056;14.408;2022-11-18T08:43:34;5.28;;;2.85;;
38911;SDS011;28444;48.056;14.408;2022-11-18T08:46:21;3.13;;;2.15;;
38911;SDS011;28444;48.056;14.408;2022-11-18T08:49:08;2.63;;;1.80;;
38911;SDS011;28444;48.056;14.408;2022-11-18T08:51:55;4.47;;;2.15;;
38911;SDS011;28444;48.056;14.408;2022-11-18T08:54:42;2.58;;;1.67;;
38911;SDS011;28444;48.056;14.408;2022-11-18T08:57:29;3.80;;;2.20;;
38911;SDS011;28444;48.056;14.408;2022-11-18T09:00:17;3.88;;;2.08;;
38911;SDS011;28444;48.056;14.408;2022-11-18T09:03:05;3.05;;;1.65;;
38911;SDS011;28444;48.056;14.408;2022-11-18T09:05:52;2.25;;;1.35;;
38911;SDS011;28444;48.056;14.408;2022-11-18T09:08:39;4.78;;;2.60;;
38911;SDS011;28444;48.056;14.408;2022-11-18T09:11:26;3.75;;;2.47;;
38911;SDS011;28444;48.056;14.408;2022-11-18T09:14:14;6.40;;;3.17;;
38911;SDS011;28444;48.056;14.408;2022-11-18T09:17:21;4.43;;;2.38;;
38911;SDS011;28444;48.056;14.408;2022-11-18T09:20:08;4.68;;;2.90;;
38911;SDS011;28444;48.056;14.408;2022-11-18T09:22:56;5.38;;;2.10;;
38911;SDS011;28444;48.056;14.408;2022-11-18T09:25:43;4.82;;;2.67;;
38911;SDS011;28444;48.056;14.408;2022-11-18T09:28:30;5.45;;;2.30;;
38911;SDS011;28444;48.056;14.408;2022-11-18T09:31:17;4.93;;;2.70;;
38911;SDS011;28444;48.056;14.408;2022-11-18T09:34:04;4.20;;;2.45;;
38911;SDS011;28444;48.056;14.408;2022-11-18T09:36:51;3.67;;;2.10;;
38911;SDS011;28444;48.056;14.408;2022-11-18T09:39:41;3.45;;;1.80;;
38911;SDS011;28444;48.056;14.408;2022-11-18T09:42:35;1.92;;;1.48;;
38911;SDS011;28444;48.056;14.408;2022-11-18T09:45:37;4.03;;;1.00;;
38911;SDS011;28444;48.056;14.408;2022-11-18T09:48:29;2.53;;;1.13;;
38911;SDS011;28444;48.056;14.408;2022-11-18T09:51:48;1.17;;;1.08;;
38911;SDS011;28444;48.056;14.408;2022-11-18T09:54:36;0.85;;;0.85;;
38911;SDS011;28444;48.056;14.408;2022-11-18T09:57:30;1.15;;;0.95;;
38911;SDS011;28444;48.056;14.408;2022-11-18T10:00:25;2.25;;;1.00;;
38911;SDS011;28444;48.056;14.408;2022-11-18T10:03:28;2.03;;;1.10;;
38911;SDS011;28444;48.056;14.408;2022-11-18T10:06:23;1.13;;;1.00;;
38911;SDS011;28444;48.056;14.408;2022-11-18T10:12:40;1.17;;;1.00;;
38911;SDS011;28444;48.056;14.408;2022-11-18T10:15:36;1.15;;;1.05;;
38911;SDS011;28444;48.056;14.408;2022-11-18T10:18:35;2.00;;;1.30;;
38911;SDS011;28444;48.056;14.408;2022-11-18T10:25:18;1.27;;;1.10;;
38911;SDS011;28444;48.056;14.408;2022-11-18T10:28:13;2.03;;;1.13;;
38911;SDS011;28444;48.056;14.408;2022-11-18T10:31:07;1.63;;;1.38;;
38911;SDS011;28444;48.056;14.408;2022-11-18T10:33:59;1.67;;;1.10;;
38911;SDS011;28444;48.056;14.408;2022-11-18T10:37:09;1.90;;;1.30;;
38911;SDS011;28444;48.056;14.408;2022-11-18T10:40:29;1.02;;;0.93;;
38911;SDS011;28444;48.056;14.408;2022-11-18T10:46:37;1.83;;;1.20;;
38911;SDS011;28444;48.056;14.408;2022-11-18T10:49:27;1.52;;;1.10;;
38911;SDS011;28444;48.056;14.408;2022-11-18T10:52:24;1.17;;;0.90;;
38911;SDS011;28444;48.056;14.408;2022-11-18T10:55:23;2.10;;;0.90;;
38911;SDS011;28444;48.056;14.408;2022-11-18T10:58:14;0.93;;;0.82;;
38911;SDS011;28444;48.056;14.408;2022-11-18T11:01:06;1.90;;;0.98;;
38911;SDS011;28444;48.056;14.408;2022-11-18T11:07:26;1.10;;;1.05;;
38911;SDS011;28444;48.056;14.408;2022-11-18T11:10:19;1.65;;;1.38;;
38911;SDS011;28444;48.056;14.408;2022-11-18T11:13:09;6.40;;;1.05;;
38911;SDS011;28444;48.056;14.408;2022-11-18T11:16:02;0.95;;;0.90;;
38911;SDS011;28444;48.056;14.408;2022-11-18T11:18:53;1.38;;;0.90;;
38911;SDS011;28444;48.056;14.408;2022-11-18T11:21:44;1.10;;;1.00;;
38911;SDS011;28444;48.056;14.408;2022-11-18T11:24:31;0.85;;;0.85;;
38911;SDS011;28444;48.056;14.408;2022-11-18T11:27:24;0.93;;;0.90;;
38911;SDS011;28444;48.056;14.408;2022-11-18T11:34:40;2.88;;;0.80;;
38911;SDS011;28444;48.056;14.408;2022-11-18T11:38:11;8.70;;;1.13;;
38911;SDS011;28444;48.056;14.408;2022-11-18T11:41:19;1.08;;;1.08;;
38911;SDS011;28444;48.056;14.408;2022-11-18T11:44:54;2.17;;;1.00;;
38911;SDS011;28444;48.056;14.408;2022-11-18T11:51:31;1.33;;;1.10;;
38911;SDS011;28444;48.056;14.408;2022-11-18T12:02:16;1.20;;;0.80;;
38911;SDS011;28444;48.056;14.408;2022-11-18T12:05:41;1.40;;;0.93;;
38911;SDS011;28444;48.056;14.408;2022-11-18T12:08:47;0.57;;;0.57;;
38911;SDS011;28444;48.056;14.408;2022-11-18T12:11:43;1.08;;;0.65;;
38911;SDS011;28444;48.056;14.408;2022-11-18T12:14:50;2.20;;;0.80;;
38911;SDS011;28444;48.056;14.408;2022-11-18T12:17:47;1.55;;;1.00;;
38911;SDS011;28444;48.056;14.408;2022-11-18T12:20:46;1.30;;;1.00;;
38911;SDS011;28444;48.056;14.408;2022-11-18T12:23:35;1.13;;;1.02;;
38911;SDS011;28444;48.056;14.408;2022-11-18T12:26:34;1.02;;;0.68;;
38911;SDS011;28444;48.056;14.408;2022-11-18T12:29:21;0.68;;;0.68;;
38911;SDS011;28444;48.056;14.408;2022-11-18T12:32:30;0.90;;;0.90;;
38911;SDS011;28444;48.056;14.408;2022-11-18T12:35:23;0.95;;;0.90;;
38911;SDS011;28444;48.056;14.408;2022-11-18T12:38:29;0.95;;;0.90;;
38911;SDS011;28444;48.056;14.408;2022-11-18T12:45:36;0.80;;;0.80;;
38911;SDS011;28444;48.056;14.408;2022-11-18T12:48:46;0.60;;;0.60;;
38911;SDS011;28444;48.056;14.408;2022-11-18T12:51:39;1.33;;;0.90;;
38911;SDS011;28444;48.056;14.408;2022-11-18T12:54:36;1.05;;;1.05;;
38911;SDS011;28444;48.056;14.408;2022-11-18T12:57:32;3.25;;;0.57;;
38911;SDS011;28444;48.056;14.408;2022-11-18T13:00:27;1.27;;;0.70;;
38911;SDS011;28444;48.056;14.408;2022-11-18T13:03:20;1.08;;;0.60;;
38911;SDS011;28444;48.056;14.408;2022-11-18T13:06:30;1.48;;;0.80;;
38911;SDS011;28444;48.056;14.408;2022-11-18T13:09:22;2.70;;;0.80;;
38911;SDS011;28444;48.056;14.408;2022-11-18T13:12:13;2.45;;;0.90;;
38911;SDS011;28444;48.056;14.408;2022-11-18T13:15:05;0.68;;;0.68;;
38911;SDS011;28444;48.056;14.408;2022-11-18T13:18:17;1.75;;;1.00;;
38911;SDS011;28444;48.056;14.408;2022-11-18T13:21:07;2.10;;;1.00;;
38911;SDS011;28444;48.056;14.408;2022-11-18T13:24:13;0.60;;;0.60;;
38911;SDS011;28444;48.056;14.408;2022-11-18T13:27:02;1.35;;;0.85;;
38911;SDS011;28444;48.056;14.408;2022-11-18T13:29:52;2.45;;;1.00;;
38911;SDS011;28444;48.056;14.408;2022-11-18T13:32:47;2.92;;;0.85;;
38911;SDS011;28444;48.056;14.408;2022-11-18T13:35:34;0.82;;;0.52;;
38911;SDS011;28444;48.056;14.408;2022-11-18T13:38:26;0.75;;;0.60;;
38911;SDS011;28444;48.056;14.408;2022-11-18T13:41:18;0.60;;;0.60;;
38911;SDS011;28444;48.056;14.408;2022-11-18T13:47:33;1.17;;;0.70;;
38911;SDS011;28444;48.056;14.408;2022-11-18T13:50:53;0.65;;;0.65;;
38911;SDS011;28444;48.056;14.408;2022-11-18T13:53:42;3.50;;;0.68;;
38911;SDS011;28444;48.056;14.408;2022-11-18T13:56:30;0.60;;;0.60;;
38911;SDS011;28444;48.056;14.408;2022-11-18T13:59:21;4.43;;;0.68;;
38911;SDS011;28444;48.056;14.408;2022-11-18T14:02:10;1.05;;;0.70;;
38911;SDS011;28444;48.056;14.408;2022-11-18T14:04:59;0.80;;;0.80;;
38911;SDS011;28444;48.056;14.408;2022-11-18T14:11:10;1.25;;;0.73;;
38911;SDS011;28444;48.056;14.408;2022-11-18T14:13:58;0.70;;;0.70;;
38911;SDS011;28444;48.056;14.408;2022-11-18T14:16:45;0.70;;;0.70;;
38911;SDS011;28444;48.056;14.408;2022-11-18T14:19:39;0.80;;;0.80;;
38911;SDS011;28444;48.056;14.408;2022-11-18T14:22:27;0.90;;;0.70;;
38911;SDS011;28444;48.056;14.408;2022-11-18T14:25:21;1.25;;;0.80;;
38911;SDS011;28444;48.056;14.408;2022-11-18T14:28:22;1.35;;;0.52;;
38911;SDS011;28444;48.056;14.408;2022-11-18T14:31:23;8.20;;;0.90;;
38911;SDS011;28444;48.056;14.408;2022-11-18T14:34:23;1.63;;;0.98;;
38911;SDS011;28444;48.056;14.408;2022-11-18T14:37:12;1.30;;;1.00;;
38911;SDS011;28444;48.056;14.408;2022-11-18T14:40:00;3.97;;;0.80;;
38911;SDS011;28444;48.056;14.408;2022-11-18T14:42:47;1.23;;;1.02;;
38911;SDS011;28444;48.056;14.408;2022-11-18T14:45:34;3.47;;;1.20;;
38911;SDS011;28444;48.056;14.408;2022-11-18T14:48:24;1.27;;;0.93;;
38911;SDS011;28444;48.056;14.408;2022-11-18T14:51:18;2.05;;;0.88;;
38911;SDS011;28444;48.056;14.408;2022-11-18T14:54:05;6.85;;;1.33;;
38911;SDS011;28444;48.056;14.408;2022-11-18T14:56:52;1.27;;;0.90;;
38911;SDS011;28444;48.056;14.408;2022-11-18T14:59:42;3.42;;;2.00;;
38911;SDS011;28444;48.056;14.408;2022-11-18T15:02:29;2.72;;;0.88;;
38911;SDS011;28444;48.056;14.408;2022-11-18T15:05:16;0.88;;;0.60;;
38911;SDS011;28444;48.056;14.408;2022-11-18T15:08:03;2.72;;;1.45;;
38911;SDS011;28444;48.056;14.408;2022-11-18T15:10:50;4.03;;;2.35;;
38911;SDS011;28444;48.056;14.408;2022-11-18T15:13:38;5.63;;;1.98;;
38911;SDS011;28444;48.056;14.408;2022-11-18T15:16:26;1.33;;;0.82;;
38911;SDS011;28444;48.056;14.408;2022-11-18T15:19:15;0.95;;;0.63;;
38911;SDS011;28444;48.056;14.408;2022-11-18T15:22:02;1.55;;;0.75;;
38911;SDS011;28444;48.056;14.408;2022-11-18T15:24:49;5.65;;;2.92;;
38911;SDS011;28444;48.056;14.408;2022-11-18T15:27:36;1.35;;;1.00;;
38911;SDS011;28444;48.056;14.408;2022-11-18T15:30:23;1.38;;;0.85;;
38911;SDS011;28444;48.056;14.408;2022-11-18T15:33:10;0.73;;;0.50;;
38911;SDS011;28444;48.056;14.408;2022-11-18T15:36:08;12.93;;;1.60;;
38911;SDS011;28444;48.056;14.408;2022-11-18T18:49:10;12.82;;;3.58;;
38911;SDS011;28444;48.056;14.408;2022-11-18T18:51:58;3.40;;;2.33;;
38911;SDS011;28444;48.056;14.408;2022-11-18T18:54:45;3.70;;;2.58;;
38911;SDS011;28444;48.056;14.408;2022-11-18T18:57:32;3.40;;;1.38;;
38911;SDS011;28444;48.056;14.408;2022-11-18T19:00:19;8.63;;;1.65;;
38911;SDS011;28444;48.056;14.408;2022-11-18T19:03:06;3.17;;;1.35;;
38911;SDS011;28444;48.056;14.408;2022-11-18T19:05:53;9.20;;;1.13;;
38911;SDS011;28444;48.056;14.408;2022-11-18T19:09:01;1.85;;;0.90;;
38911;SDS011;28444;48.056;14.408;2022-11-18T19:11:50;2.30;;;0.82;;
38911;SDS011;28444;48.056;14.408;2022-11-18T19:14:56;0.80;;;0.80;;
38911;SDS011;28444;48.056;14.408;2022-11-18T19:17:43;1.67;;;0.90;;
38911;SDS011;28444;48.056;14.408;2022-11-18T19:20:31;2.30;;;1.20;;
38911;SDS011;28444;48.056;14.408;2022-11-18T19:23:22;1.52;;;1.10;;
38911;SDS011;28444;48.056;14.408;2022-11-18T19:26:11;2.58;;;1.50;;
38911;SDS011;28444;48.056;14.408;2022-11-18T19:28:58;2.92;;;1.70;;
38911;SDS011;28444;48.056;14.408;2022-11-18T19:31:45;0.70;;;0.70;;
38911;SDS011;28444;48.056;14.408;2022-11-18T19:34:32;0.98;;;0.98;;
38911;SDS011;28444;48.056;14.408;2022-11-18T19:37:19;77.72;;;30.48;;
38911;SDS011;28444;48.056;14.408;2022-11-18T19:40:07;113.93;;;40.90;;
38911;SDS011;28444;48.056;14.408;2022-11-18T19:42:56;280.73;;;99.38;;
38911;SDS011;28444;48.056;14.408;2022-11-18T19:45:48;179.68;;;70.53;;
38911;SDS011;28444;48.056;14.408;2022-11-18T19:48:36;60.08;;;31.48;;
38911;SDS011;28444;48.056;14.408;2022-11-18T19:51:23;32.17;;;18.48;;
38911;SDS011;28444;48.056;14.408;2022-11-18T19:54:10;55.42;;;33.35;;
38911;SDS011;28444;48.056;14.408;2022-11-18T19:56:57;37.92;;;23.98;;
38911;SDS011;28444;48.056;14.408;2022-11-18T19:59:45;71.20;;;45.63;;
38911;SDS011;28444;48.056;14.408;2022-11-18T20:02:32;44.42;;;30.83;;
38911;SDS011;28444;48.056;14.408;2022-11-18T20:05:19;118.63;;;67.90;;
38911;SDS011;28444;48.056;14.408;2022-11-18T20:08:32;27.45;;;16.83;;
38911;SDS011;28444;48.056;14.408;2022-11-18T20:11:20;7.93;;;5.15;;
38911;SDS011;28444;48.056;14.408;2022-11-18T20:14:08;6.57;;;6.00;;
38911;SDS011;28444;48.056;14.408;2022-11-18T20:16:56;19.67;;;18.08;;
38911;SDS011;28444;48.056;14.408;2022-11-18T20:19:43;12.50;;;11.18;;
38911;SDS011;28444;48.056;14.408;2022-11-18T20:22:30;9.57;;;8.77;;
38911;SDS011;28444;48.056;14.408;2022-11-18T20:25:17;9.73;;;8.93;;
38911;SDS011;28444;48.056;14.408;2022-11-18T20:28:04;10.20;;;7.07;;
38911;SDS011;28444;48.056;14.408;2022-11-18T20:30:54;4.47;;;4.07;;
38911;SDS011;28444;48.056;14.408;2022-11-18T20:33:43;4.30;;;2.92;;
38911;SDS011;28444;48.056;14.408;2022-11-18T20:36:35;2.50;;;1.67;;
38911;SDS011;28444;48.056;14.408;2022-11-18T20:39:22;1.65;;;1.55;;
38911;SDS011;28444;48.056;14.408;2022-11-18T20:42:09;1.75;;;1.52;;
38911;SDS011;28444;48.056;14.408;2022-11-18T20:45:15;1.02;;;0.90;;
38911;SDS011;28444;48.056;14.408;2022-11-18T20:48:02;1.65;;;1.55;;
38911;SDS011;28444;48.056;14.408;2022-11-18T20:50:49;1.58;;;1.27;;
38911;SDS011;28444;48.056;14.408;2022-11-18T20:53:37;4.72;;;3.40;;
38911;SDS011;28444;48.056;14.408;2022-11-18T20:56:27;2.80;;;1.92;;
38911;SDS011;28444;48.056;14.408;2022-11-18T20:59:14;3.95;;;2.10;;